sensor_id;sensor_type;location;lat;lon;timestamp;P1;durP1;ratioP1;P2;durP2;ratioP2
26562;SDS011;14217;50.986;5.826;2022-08-21T00:02:33;3.47;;;1.20;;
26562;SDS011;14217;50.986;5.826;2022-08-21T00:07:35;2.08;;;1.38;;
26562;SDS011;14217;50.986;5.826;2022-08-21T00:12:37;1.60;;;1.33;;
26562;SDS011;14217;50.986;5.826;2022-08-21T00:17:39;2.80;;;1.30;;
26562;SDS011;14217;50.986;5.826;2022-08-21T00:22:42;2.10;;;1.10;;
26562;SDS011;14217;50.986;5.826;2022-08-21T00:27:44;6.55;;;1.13;;
26562;SDS011;14217;50.986;5.826;2022-08-21T00:32:47;2.15;;;1.40;;
26562;SDS011;14217;50.986;5.826;2022-08-21T00:37:50;2.70;;;1.30;;
26562;SDS011;14217;50.986;5.826;2022-08-21T00:42:51;1.55;;;1.17;;
26562;SDS011;14217;50.986;5.826;2022-08-21T00:47:54;2.03;;;1.20;;
26562;SDS011;14217;50.986;5.826;2022-08-21T00:52:56;2.13;;;1.15;;
26562;SDS011;14217;50.986;5.826;2022-08-21T00:58:00;1.90;;;1.70;;
26562;SDS011;14217;50.986;5.826;2022-08-21T01:03:10;1.92;;;1.27;;
26562;SDS011;14217;50.986;5.826;2022-08-21T01:08:15;1.00;;;0.93;;
26562;SDS011;14217;50.986;5.826;2022-08-21T01:13:18;2.42;;;1.15;;
26562;SDS011;14217;50.986;5.826;2022-08-21T01:18:22;3.67;;;1.27;;
26562;SDS011;14217;50.986;5.826;2022-08-21T01:23:25;4.10;;;1.50;;
26562;SDS011;14217;50.986;5.826;2022-08-21T01:28:27;1.35;;;0.80;;
26562;SDS011;14217;50.986;5.826;2022-08-21T01:33:32;2.22;;;0.80;;
26562;SDS011;14217;50.986;5.826;2022-08-21T01:38:35;4.47;;;1.33;;
26562;SDS011;14217;50.986;5.826;2022-08-21T01:43:37;1.33;;;1.00;;
26562;SDS011;14217;50.986;5.826;2022-08-21T01:48:40;1.17;;;1.05;;
26562;SDS011;14217;50.986;5.826;2022-08-21T01:53:43;2.30;;;1.20;;
26562;SDS011;14217;50.986;5.826;2022-08-21T01:58:45;2.83;;;1.35;;
26562;SDS011;14217;50.986;5.826;2022-08-21T02:03:49;2.72;;;1.80;;
26562;SDS011;14217;50.986;5.826;2022-08-21T02:08:51;2.35;;;1.75;;
26562;SDS011;14217;50.986;5.826;2022-08-21T02:13:53;5.45;;;1.30;;
26562;SDS011;14217;50.986;5.826;2022-08-21T02:18:55;1.35;;;1.00;;
26562;SDS011;14217;50.986;5.826;2022-08-21T02:23:57;4.13;;;1.20;;
26562;SDS011;14217;50.986;5.826;2022-08-21T02:28:59;2.30;;;1.33;;
26562;SDS011;14217;50.986;5.826;2022-08-21T02:34:02;1.30;;;1.20;;
26562;SDS011;14217;50.986;5.826;2022-08-21T02:39:04;2.83;;;1.30;;
26562;SDS011;14217;50.986;5.826;2022-08-21T02:44:06;4.25;;;1.27;;
26562;SDS011;14217;50.986;5.826;2022-08-21T02:49:08;3.47;;;1.27;;
26562;SDS011;14217;50.986;5.826;2022-08-21T02:54:10;4.32;;;1.40;;
26562;SDS011;14217;50.986;5.826;2022-08-21T02:59:12;2.35;;;2.00;;
26562;SDS011;14217;50.986;5.826;2022-08-21T03:04:14;2.22;;;1.30;;
26562;SDS011;14217;50.986;5.826;2022-08-21T03:09:16;2.40;;;1.10;;
26562;SDS011;14217;50.986;5.826;2022-08-21T03:14:18;6.05;;;1.65;;
26562;SDS011;14217;50.986;5.826;2022-08-21T03:19:20;2.25;;;1.17;;
26562;SDS011;14217;50.986;5.826;2022-08-21T03:24:22;3.08;;;1.35;;
26562;SDS011;14217;50.986;5.826;2022-08-21T03:29:24;2.00;;;1.08;;
26562;SDS011;14217;50.986;5.826;2022-08-21T03:34:26;2.03;;;1.30;;
26562;SDS011;14217;50.986;5.826;2022-08-21T03:39:28;3.08;;;1.40;;
26562;SDS011;14217;50.986;5.826;2022-08-21T03:44:30;2.30;;;0.90;;
26562;SDS011;14217;50.986;5.826;2022-08-21T03:49:32;2.25;;;1.55;;
26562;SDS011;14217;50.986;5.826;2022-08-21T03:54:34;1.50;;;1.13;;
26562;SDS011;14217;50.986;5.826;2022-08-21T03:59:37;1.50;;;1.30;;
26562;SDS011;14217;50.986;5.826;2022-08-21T04:04:40;3.53;;;1.52;;
26562;SDS011;14217;50.986;5.826;2022-08-21T04:09:42;3.22;;;0.90;;
26562;SDS011;14217;50.986;5.826;2022-08-21T04:14:45;1.38;;;1.05;;
26562;SDS011;14217;50.986;5.826;2022-08-21T04:19:47;3.17;;;1.08;;
26562;SDS011;14217;50.986;5.826;2022-08-21T04:24:54;2.90;;;0.77;;
26562;SDS011;14217;50.986;5.826;2022-08-21T04:29:56;1.52;;;1.00;;
26562;SDS011;14217;50.986;5.826;2022-08-21T04:34:59;3.47;;;1.20;;
26562;SDS011;14217;50.986;5.826;2022-08-21T04:40:03;2.70;;;1.13;;
26562;SDS011;14217;50.986;5.826;2022-08-21T04:45:07;3.35;;;1.10;;
26562;SDS011;14217;50.986;5.826;2022-08-21T04:50:09;3.53;;;1.23;;
26562;SDS011;14217;50.986;5.826;2022-08-21T04:55:11;3.42;;;1.35;;
26562;SDS011;14217;50.986;5.826;2022-08-21T05:00:13;3.47;;;1.13;;
26562;SDS011;14217;50.986;5.826;2022-08-21T05:05:16;7.30;;;1.42;;
26562;SDS011;14217;50.986;5.826;2022-08-21T05:10:18;1.77;;;1.30;;
26562;SDS011;14217;50.986;5.826;2022-08-21T05:15:20;2.45;;;1.17;;
26562;SDS011;14217;50.986;5.826;2022-08-21T05:20:23;2.35;;;1.27;;
26562;SDS011;14217;50.986;5.826;2022-08-21T05:25:25;5.07;;;1.20;;
26562;SDS011;14217;50.986;5.826;2022-08-21T05:30:28;2.33;;;0.95;;
26562;SDS011;14217;50.986;5.826;2022-08-21T05:35:31;2.58;;;1.00;;
26562;SDS011;14217;50.986;5.826;2022-08-21T05:40:33;6.00;;;1.50;;
26562;SDS011;14217;50.986;5.826;2022-08-21T05:45:35;1.88;;;1.13;;
26562;SDS011;14217;50.986;5.826;2022-08-21T05:50:44;1.92;;;1.20;;
26562;SDS011;14217;50.986;5.826;2022-08-21T05:55:47;4.07;;;1.10;;
26562;SDS011;14217;50.986;5.826;2022-08-21T06:00:50;2.90;;;1.65;;
26562;SDS011;14217;50.986;5.826;2022-08-21T06:05:53;2.75;;;1.15;;
26562;SDS011;14217;50.986;5.826;2022-08-21T06:10:56;3.20;;;1.23;;
26562;SDS011;14217;50.986;5.826;2022-08-21T06:16:09;2.67;;;1.05;;
26562;SDS011;14217;50.986;5.826;2022-08-21T06:21:16;4.00;;;1.25;;
26562;SDS011;14217;50.986;5.826;2022-08-21T06:26:18;2.50;;;0.88;;
26562;SDS011;14217;50.986;5.826;2022-08-21T06:31:22;1.98;;;0.88;;
26562;SDS011;14217;50.986;5.826;2022-08-21T06:36:26;2.40;;;1.10;;
26562;SDS011;14217;50.986;5.826;2022-08-21T06:41:28;4.50;;;1.52;;
26562;SDS011;14217;50.986;5.826;2022-08-21T06:46:39;3.20;;;1.27;;
26562;SDS011;14217;50.986;5.826;2022-08-21T06:51:41;7.13;;;1.20;;
26562;SDS011;14217;50.986;5.826;2022-08-21T06:56:43;2.72;;;1.20;;
26562;SDS011;14217;50.986;5.826;2022-08-21T07:01:44;1.70;;;0.93;;
26562;SDS011;14217;50.986;5.826;2022-08-21T07:06:47;2.65;;;0.80;;
26562;SDS011;14217;50.986;5.826;2022-08-21T07:11:51;3.10;;;1.58;;
26562;SDS011;14217;50.986;5.826;2022-08-21T07:16:54;4.85;;;1.27;;
26562;SDS011;14217;50.986;5.826;2022-08-21T07:21:57;3.83;;;1.05;;
26562;SDS011;14217;50.986;5.826;2022-08-21T07:27:01;4.35;;;0.90;;
26562;SDS011;14217;50.986;5.826;2022-08-21T07:32:08;3.28;;;1.00;;
26562;SDS011;14217;50.986;5.826;2022-08-21T07:37:10;12.57;;;1.25;;
26562;SDS011;14217;50.986;5.826;2022-08-21T07:42:11;4.05;;;1.25;;
26562;SDS011;14217;50.986;5.826;2022-08-21T07:47:13;4.80;;;1.02;;
26562;SDS011;14217;50.986;5.826;2022-08-21T07:52:15;3.85;;;1.40;;
26562;SDS011;14217;50.986;5.826;2022-08-21T07:57:17;2.78;;;0.85;;
26562;SDS011;14217;50.986;5.826;2022-08-21T08:02:25;1.60;;;0.98;;
26562;SDS011;14217;50.986;5.826;2022-08-21T08:07:29;2.40;;;0.75;;
26562;SDS011;14217;50.986;5.826;2022-08-21T08:12:31;3.30;;;1.05;;
26562;SDS011;14217;50.986;5.826;2022-08-21T08:17:33;3.05;;;0.95;;
26562;SDS011;14217;50.986;5.826;2022-08-21T08:22:35;2.15;;;0.93;;
26562;SDS011;14217;50.986;5.826;2022-08-21T08:27:39;2.65;;;1.13;;
26562;SDS011;14217;50.986;5.826;2022-08-21T08:32:41;3.20;;;1.02;;
26562;SDS011;14217;50.986;5.826;2022-08-21T08:37:43;1.35;;;0.77;;
26562;SDS011;14217;50.986;5.826;2022-08-21T08:42:52;2.40;;;0.63;;
26562;SDS011;14217;50.986;5.826;2022-08-21T08:47:56;3.67;;;1.02;;
26562;SDS011;14217;50.986;5.826;2022-08-21T08:53:05;2.42;;;0.90;;
26562;SDS011;14217;50.986;5.826;2022-08-21T08:58:14;4.68;;;0.85;;
26562;SDS011;14217;50.986;5.826;2022-08-21T09:03:21;3.42;;;1.05;;
26562;SDS011;14217;50.986;5.826;2022-08-21T09:18:52;1.85;;;0.50;;
26562;SDS011;14217;50.986;5.826;2022-08-21T09:29:16;2.03;;;0.60;;
26562;SDS011;14217;50.986;5.826;2022-08-21T09:34:29;1.52;;;0.70;;
26562;SDS011;14217;50.986;5.826;2022-08-21T09:39:39;1.35;;;0.80;;
26562;SDS011;14217;50.986;5.826;2022-08-21T09:44:47;3.28;;;0.70;;
26562;SDS011;14217;50.986;5.826;2022-08-21T09:49:48;4.07;;;0.73;;
26562;SDS011;14217;50.986;5.826;2022-08-21T09:54:51;3.47;;;0.80;;
26562;SDS011;14217;50.986;5.826;2022-08-21T09:59:55;2.28;;;0.60;;
26562;SDS011;14217;50.986;5.826;2022-08-21T10:05:18;4.28;;;1.02;;
26562;SDS011;14217;50.986;5.826;2022-08-21T10:10:31;2.35;;;0.82;;
26562;SDS011;14217;50.986;5.826;2022-08-21T10:47:45;1.75;;;0.80;;
26562;SDS011;14217;50.986;5.826;2022-08-21T10:53:01;1.50;;;0.50;;
26562;SDS011;14217;50.986;5.826;2022-08-21T10:58:08;2.30;;;0.70;;
26562;SDS011;14217;50.986;5.826;2022-08-21T11:08:40;0.98;;;0.60;;
26562;SDS011;14217;50.986;5.826;2022-08-21T11:19:22;2.65;;;0.88;;
26562;SDS011;14217;50.986;5.826;2022-08-21T11:24:34;2.95;;;1.02;;
26562;SDS011;14217;50.986;5.826;2022-08-21T11:29:40;2.03;;;0.50;;
26562;SDS011;14217;50.986;5.826;2022-08-21T11:39:53;4.55;;;0.77;;
26562;SDS011;14217;50.986;5.826;2022-08-21T11:45:24;2.42;;;0.65;;
26562;SDS011;14217;50.986;5.826;2022-08-21T11:50:34;1.45;;;0.70;;
26562;SDS011;14217;50.986;5.826;2022-08-21T12:00:57;1.88;;;0.77;;
26562;SDS011;14217;50.986;5.826;2022-08-21T12:06:06;5.70;;;0.90;;
26562;SDS011;14217;50.986;5.826;2022-08-21T12:16:28;2.03;;;0.60;;
26562;SDS011;14217;50.986;5.826;2022-08-21T12:21:47;3.13;;;1.08;;
26562;SDS011;14217;50.986;5.826;2022-08-21T12:26:53;1.83;;;0.60;;
26562;SDS011;14217;50.986;5.826;2022-08-21T12:32:02;2.03;;;0.63;;
26562;SDS011;14217;50.986;5.826;2022-08-21T12:42:43;2.80;;;0.90;;
26562;SDS011;14217;50.986;5.826;2022-08-21T12:48:20;2.67;;;0.80;;
26562;SDS011;14217;50.986;5.826;2022-08-21T12:58:47;2.20;;;0.70;;
26562;SDS011;14217;50.986;5.826;2022-08-21T13:03:55;3.25;;;1.27;;
26562;SDS011;14217;50.986;5.826;2022-08-21T13:09:06;11.23;;;0.98;;
26562;SDS011;14217;50.986;5.826;2022-08-21T13:14:20;3.35;;;0.90;;
26562;SDS011;14217;50.986;5.826;2022-08-21T13:19:22;3.40;;;0.80;;
26562;SDS011;14217;50.986;5.826;2022-08-21T13:24:26;2.13;;;0.68;;
26562;SDS011;14217;50.986;5.826;2022-08-21T13:29:43;1.88;;;0.70;;
26562;SDS011;14217;50.986;5.826;2022-08-21T13:34:54;2.58;;;0.70;;
26562;SDS011;14217;50.986;5.826;2022-08-21T13:39:56;3.25;;;0.70;;
26562;SDS011;14217;50.986;5.826;2022-08-21T13:44:58;1.92;;;0.70;;
26562;SDS011;14217;50.986;5.826;2022-08-21T13:50:00;1.73;;;0.95;;
26562;SDS011;14217;50.986;5.826;2022-08-21T13:55:11;3.85;;;1.00;;
26562;SDS011;14217;50.986;5.826;2022-08-21T14:00:19;0.95;;;0.60;;
26562;SDS011;14217;50.986;5.826;2022-08-21T14:05:28;2.70;;;0.60;;
26562;SDS011;14217;50.986;5.826;2022-08-21T14:10:34;2.83;;;0.75;;
26562;SDS011;14217;50.986;5.826;2022-08-21T14:15:41;2.03;;;0.95;;
26562;SDS011;14217;50.986;5.826;2022-08-21T14:20:45;1.92;;;0.68;;
26562;SDS011;14217;50.986;5.826;2022-08-21T14:25:47;2.40;;;0.98;;
26562;SDS011;14217;50.986;5.826;2022-08-21T14:30:49;3.58;;;0.98;;
26562;SDS011;14217;50.986;5.826;2022-08-21T14:35:54;6.47;;;1.40;;
26562;SDS011;14217;50.986;5.826;2022-08-21T14:40:59;3.20;;;0.77;;
26562;SDS011;14217;50.986;5.826;2022-08-21T14:46:05;2.45;;;0.98;;
26562;SDS011;14217;50.986;5.826;2022-08-21T14:51:07;3.10;;;1.30;;
26562;SDS011;14217;50.986;5.826;2022-08-21T14:56:08;3.25;;;0.95;;
26562;SDS011;14217;50.986;5.826;2022-08-21T15:01:12;4.93;;;0.93;;
26562;SDS011;14217;50.986;5.826;2022-08-21T15:06:15;2.53;;;0.88;;
26562;SDS011;14217;50.986;5.826;2022-08-21T15:11:20;3.17;;;0.80;;
26562;SDS011;14217;50.986;5.826;2022-08-21T15:16:42;1.40;;;0.73;;
26562;SDS011;14217;50.986;5.826;2022-08-21T15:21:44;3.70;;;1.23;;
26562;SDS011;14217;50.986;5.826;2022-08-21T15:26:46;1.65;;;0.70;;
26562;SDS011;14217;50.986;5.826;2022-08-21T15:31:53;10.05;;;1.35;;
26562;SDS011;14217;50.986;5.826;2022-08-21T15:36:57;2.33;;;0.90;;
26562;SDS011;14217;50.986;5.826;2022-08-21T15:42:00;2.13;;;0.60;;
26562;SDS011;14217;50.986;5.826;2022-08-21T15:47:15;1.20;;;0.77;;
26562;SDS011;14217;50.986;5.826;2022-08-21T15:52:19;8.85;;;1.13;;
26562;SDS011;14217;50.986;5.826;2022-08-21T15:57:23;2.58;;;1.08;;
26562;SDS011;14217;50.986;5.826;2022-08-21T16:02:29;4.18;;;0.98;;
26562;SDS011;14217;50.986;5.826;2022-08-21T16:07:32;1.70;;;0.68;;
26562;SDS011;14217;50.986;5.826;2022-08-21T16:12:37;3.67;;;1.08;;
26562;SDS011;14217;50.986;5.826;2022-08-21T16:17:44;4.10;;;0.75;;
26562;SDS011;14217;50.986;5.826;2022-08-21T16:22:50;2.72;;;0.60;;
26562;SDS011;14217;50.986;5.826;2022-08-21T16:27:55;3.70;;;1.10;;
26562;SDS011;14217;50.986;5.826;2022-08-21T16:33:00;2.25;;;0.88;;
26562;SDS011;14217;50.986;5.826;2022-08-21T16:38:04;1.38;;;0.82;;
26562;SDS011;14217;50.986;5.826;2022-08-21T16:43:06;2.25;;;0.73;;
26562;SDS011;14217;50.986;5.826;2022-08-21T16:48:08;3.80;;;1.13;;
26562;SDS011;14217;50.986;5.826;2022-08-21T16:53:11;8.00;;;1.48;;
26562;SDS011;14217;50.986;5.826;2022-08-21T16:58:23;3.20;;;1.55;;
26562;SDS011;14217;50.986;5.826;2022-08-21T17:03:38;3.00;;;1.33;;
26562;SDS011;14217;50.986;5.826;2022-08-21T17:08:43;4.18;;;1.52;;
26562;SDS011;14217;50.986;5.826;2022-08-21T17:13:45;6.03;;;1.85;;
26562;SDS011;14217;50.986;5.826;2022-08-21T17:18:47;4.03;;;0.93;;
26562;SDS011;14217;50.986;5.826;2022-08-21T17:23:55;3.63;;;1.23;;
26562;SDS011;14217;50.986;5.826;2022-08-21T17:28:57;3.72;;;1.02;;
26562;SDS011;14217;50.986;5.826;2022-08-21T17:33:59;3.97;;;1.02;;
26562;SDS011;14217;50.986;5.826;2022-08-21T17:39:02;3.45;;;0.85;;
26562;SDS011;14217;50.986;5.826;2022-08-21T17:44:05;1.75;;;0.70;;
26562;SDS011;14217;50.986;5.826;2022-08-21T17:49:14;2.53;;;0.90;;
26562;SDS011;14217;50.986;5.826;2022-08-21T17:54:16;2.90;;;1.10;;
26562;SDS011;14217;50.986;5.826;2022-08-21T17:59:18;2.38;;;1.30;;
26562;SDS011;14217;50.986;5.826;2022-08-21T18:04:20;3.97;;;0.98;;
26562;SDS011;14217;50.986;5.826;2022-08-21T18:09:22;3.10;;;1.13;;
26562;SDS011;14217;50.986;5.826;2022-08-21T18:14:30;2.35;;;0.85;;
26562;SDS011;14217;50.986;5.826;2022-08-21T18:19:34;3.22;;;0.93;;
26562;SDS011;14217;50.986;5.826;2022-08-21T18:24:49;1.83;;;0.57;;
26562;SDS011;14217;50.986;5.826;2022-08-21T18:29:51;2.88;;;0.90;;
26562;SDS011;14217;50.986;5.826;2022-08-21T18:34:56;6.47;;;1.15;;
26562;SDS011;14217;50.986;5.826;2022-08-21T18:40:01;1.63;;;0.85;;
26562;SDS011;14217;50.986;5.826;2022-08-21T18:45:04;2.45;;;0.90;;
26562;SDS011;14217;50.986;5.826;2022-08-21T18:50:10;3.42;;;1.13;;
26562;SDS011;14217;50.986;5.826;2022-08-21T18:55:17;19.17;;;0.93;;
26562;SDS011;14217;50.986;5.826;2022-08-21T19:00:23;4.18;;;1.15;;
26562;SDS011;14217;50.986;5.826;2022-08-21T19:05:27;2.75;;;0.88;;
26562;SDS011;14217;50.986;5.826;2022-08-21T19:10:29;5.72;;;1.02;;
26562;SDS011;14217;50.986;5.826;2022-08-21T19:15:31;3.95;;;0.98;;
26562;SDS011;14217;50.986;5.826;2022-08-21T19:20:36;2.67;;;0.98;;
26562;SDS011;14217;50.986;5.826;2022-08-21T19:25:43;4.25;;;1.48;;
26562;SDS011;14217;50.986;5.826;2022-08-21T19:30:54;9.05;;;1.45;;
26562;SDS011;14217;50.986;5.826;2022-08-21T19:36:02;2.22;;;1.30;;
26562;SDS011;14217;50.986;5.826;2022-08-21T19:41:06;4.35;;;1.00;;
26562;SDS011;14217;50.986;5.826;2022-08-21T19:46:13;3.97;;;1.60;;
26562;SDS011;14217;50.986;5.826;2022-08-21T19:51:20;4.13;;;1.88;;
26562;SDS011;14217;50.986;5.826;2022-08-21T19:56:24;4.63;;;1.77;;
26562;SDS011;14217;50.986;5.826;2022-08-21T20:01:28;5.07;;;2.42;;
26562;SDS011;14217;50.986;5.826;2022-08-21T20:06:32;5.75;;;2.95;;
26562;SDS011;14217;50.986;5.826;2022-08-21T20:11:36;10.07;;;1.83;;
26562;SDS011;14217;50.986;5.826;2022-08-21T20:16:41;4.57;;;1.90;;
26562;SDS011;14217;50.986;5.826;2022-08-21T20:21:43;3.75;;;1.85;;
26562;SDS011;14217;50.986;5.826;2022-08-21T20:26:46;5.30;;;1.75;;
26562;SDS011;14217;50.986;5.826;2022-08-21T20:31:50;2.42;;;1.35;;
26562;SDS011;14217;50.986;5.826;2022-08-21T20:36:52;4.30;;;2.20;;
26562;SDS011;14217;50.986;5.826;2022-08-21T20:41:54;3.33;;;1.52;;
26562;SDS011;14217;50.986;5.826;2022-08-21T20:46:57;2.83;;;1.50;;
26562;SDS011;14217;50.986;5.826;2022-08-21T20:52:09;2.15;;;1.10;;
26562;SDS011;14217;50.986;5.826;2022-08-21T20:57:15;4.50;;;1.67;;
26562;SDS011;14217;50.986;5.826;2022-08-21T21:13:02;4.07;;;1.20;;
26562;SDS011;14217;50.986;5.826;2022-08-21T21:18:20;3.42;;;1.58;;
26562;SDS011;14217;50.986;5.826;2022-08-21T21:29:31;1.83;;;1.35;;
26562;SDS011;14217;50.986;5.826;2022-08-21T21:34:42;6.65;;;1.17;;
26562;SDS011;14217;50.986;5.826;2022-08-21T21:39:48;4.45;;;1.15;;
26562;SDS011;14217;50.986;5.826;2022-08-21T22:00:41;3.72;;;1.10;;
26562;SDS011;14217;50.986;5.826;2022-08-21T22:10:59;4.45;;;1.58;;
26562;SDS011;14217;50.986;5.826;2022-08-21T22:16:24;11.93;;;1.48;;
26562;SDS011;14217;50.986;5.826;2022-08-21T22:21:29;3.72;;;1.40;;
26562;SDS011;14217;50.986;5.826;2022-08-21T22:26:45;3.38;;;1.45;;
26562;SDS011;14217;50.986;5.826;2022-08-21T22:32:11;6.60;;;1.50;;
26562;SDS011;14217;50.986;5.826;2022-08-21T22:37:25;2.22;;;1.27;;
26562;SDS011;14217;50.986;5.826;2022-08-21T22:42:35;2.03;;;1.25;;
26562;SDS011;14217;50.986;5.826;2022-08-21T22:47:39;4.57;;;1.80;;
26562;SDS011;14217;50.986;5.826;2022-08-21T22:52:45;3.38;;;1.10;;
26562;SDS011;14217;50.986;5.826;2022-08-21T23:03:21;5.03;;;1.20;;
26562;SDS011;14217;50.986;5.826;2022-08-21T23:08:35;3.38;;;1.30;;
26562;SDS011;14217;50.986;5.826;2022-08-21T23:13:40;3.00;;;1.20;;
26562;SDS011;14217;50.986;5.826;2022-08-21T23:34:57;2.83;;;1.35;;
26562;SDS011;14217;50.986;5.826;2022-08-21T23:50:24;1.83;;;1.08;;
